Pagina principală
METAR-TAF:

METAR-TAF

Aeroporturi :

Avenger Field

Sweetwater, Texas, Statele Unite ale Americii

Latitudine: 32-28-02N, longitudine: 100-27-59W, elevație: 725 m

Observații meteo curente

Raportul a fost făcut în urmă cu 32 de minute, la 15:15 UTC
Vânt 13 kt de la Nord-vest
Temperatură 29°C
Umiditate 40%
Presiune 1012 hPa
Vizibilitate: 16.1 km

METAR: KSWW 211515Z AUTO 31013KT 10SM 29/14 A2987 RMK AO2 T02920144

Ora: 10:47 (15:47 UTC)


TAF: lipsă

Observații și prognoze meteo pentru peste 4.000 de aeroporturi (rapoarte METAR și TAF).

Stațiile disponibile sunt reprezentate pe hartă prin puncte galbene și roșii.

Țineți indicatorul mouse-ului pe punctul dorit pentru a vedea denumirea stației.

Apoi, faceți clic pentru a vedea observațiile și prognozele meteorologice.

Pentru a schimba harta: Pentru mărire, faceți clic pe butoanele verzi cu cruce neagră; pentru micșorare, pe butonul verde cu o liniuță; pentru hărți învecinate, pe săgețile verzi.


METAR-TAF: